North Island Naval Air Station-Halsey Field
KNZY : now visible

Aeroporto :











RITROVATECI SU...

 
LOGIN :

Iscrizione | Disclaimer

   EN    FR    IT 

 









Sommario :    VFR   VFR Marginale   IFR   IFR Intensivo   IFR Molto Intensivo
Visibilità : 
Base nubi : 
>= 8 km
>= 3000ft
5 / 8 km
1000 / 3000 ft
1500m / 5 km
500 / 1000 ft
800 / 1500m
200 / 500 ft
< 800m
< 200 ft
Simboli :   Temporali  Nebbia  Neve Forte  Precipitazioni Forti  Vento > 20 kt






- Altitudine del aeroporto : 26 ft


KNZY - North Island Naval Air Station-Halsey Field

ULTIMO METAR :
  • 080452Z 33006KT 10SM -RA SCT015 SCT020 BKN040 13/11 A3004 RMK AO2 RAB08 SLP172 P0000 T01330106

METARs OBSOLETI :
  • 080352Z 30007KT 10SM FEW015 SCT020 BKN040 13/11 A3003 RMK AO2 RAB07E17 SLP170 P0000 T01330106
  • 080252Z 23008KT 10SM FEW015 SCT020 BKN040 13/11 A3002 RMK AO2 RAB03E52 SLP167 P0001 60001 T01330106 51020

TAF TAF KNZY
Valido dal 07 a 23 ore il 08 a 23 ore UTC


0723/0823 17020G30KT 9999 VCSH FEW010 SCT025 BKN035 OVC050 650609 651505 530006 531009 531909 532703 QNH2991INS
TEMPO 0723/0802 4800 -SHRA BR FEW005 BKN015 OVC030
BECMG 0802/0804 VRB06KT 9999 VCSH SCT010 BKN030 OVC050 650609 651505 530006 531009 531909 532709 533604 QNH2993INS
TEMPO 0807/0813 4800 -SHRA BR SCT005 BKN010 OVC025
FM081800 23011KT 9999 VCSH FEW015 SCT025 BKN040 BKN080 650609 651505 530006 531009 531909 532709 533604 QNH2996INS
TEMPO 0818/0823 24012G18KT 8000 -SHRA BR SCT008 BKN020 OVC030 T11/0812Z T17/0821Z FS30022



MetMap, La meteo Aeronautica in un colpo d'occhio ! - Copyright ORBIFLY Dicembre 2007 - Disclaimer

ORBIFLY MET'MAP TEAM :

Programmazione e sviluppo : Alexandra Zaïnal
Concezione : Baudouin d'Aumeries
Aiuto per la programmazione : Marc-Olivier Méhu
Supporto tecnico e logistico : Manuel Goepfert
Aiuto per la traduzione : Arnaldo La Scala

Contatto : metmap@orbifly.com




FONTI E CREDITI :

   NOAA       Earth
Advisory